createdAt,value
2018-12-14T00:01:05.355Z,14.07
2018-12-14T00:03:36.291Z,14.37
2018-12-14T00:06:07.177Z,14.47
2018-12-14T00:08:36.168Z,13.70
2018-12-14T00:11:05.123Z,13.13
2018-12-14T00:13:35.172Z,15.00
2018-12-14T00:16:04.179Z,13.43
2018-12-14T00:18:33.123Z,13.60
2018-12-14T00:21:02.004Z,13.53
2018-12-14T00:23:30.911Z,13.90
2018-12-14T00:25:59.879Z,13.80
2018-12-14T00:28:28.777Z,13.73
2018-12-14T00:30:57.663Z,13.37
2018-12-14T00:33:26.543Z,13.63
2018-12-14T00:35:55.403Z,13.60
2018-12-14T00:38:24.320Z,14.00
2018-12-14T00:40:53.232Z,12.93
2018-12-14T00:43:23.064Z,13.97
2018-12-14T00:45:52.041Z,12.77
2018-12-14T00:48:21.044Z,14.10
2018-12-14T00:50:50.033Z,13.20
2018-12-14T00:53:18.995Z,14.70
2018-12-14T00:55:47.913Z,14.97
2018-12-14T00:58:20.432Z,13.83
2018-12-14T01:00:49.332Z,13.50
2018-12-14T01:03:18.292Z,13.53
2018-12-14T01:05:47.277Z,14.27
2018-12-14T01:08:16.181Z,15.07
2018-12-14T01:10:45.256Z,14.73
2018-12-14T01:13:14.210Z,13.30
2018-12-14T01:15:43.123Z,14.77
2018-12-14T01:18:12.216Z,14.37
2018-12-14T01:20:41.122Z,13.70
2018-12-14T01:23:10.032Z,14.70
2018-12-14T01:25:38.989Z,14.13
2018-12-14T01:28:08.036Z,14.73
2018-12-14T01:30:37.024Z,14.33
2018-12-14T01:33:05.903Z,14.17
2018-12-14T01:35:34.932Z,14.53
2018-12-14T01:38:03.977Z,13.57
2018-12-14T01:40:32.992Z,13.80
2018-12-14T01:43:01.883Z,13.43
2018-12-14T01:45:30.844Z,14.60
2018-12-14T01:47:59.748Z,15.33
2018-12-14T01:50:28.743Z,13.97
2018-12-14T01:52:57.750Z,15.83
2018-12-14T01:55:26.750Z,14.67
2018-12-14T01:57:55.704Z,14.73
2018-12-14T02:00:24.712Z,13.80
2018-12-14T02:02:53.812Z,14.03
2018-12-14T02:05:23.430Z,14.05
2018-12-14T02:07:52.551Z,14.57
2018-12-14T02:10:21.641Z,15.00
2018-12-14T02:12:50.556Z,14.50
2018-12-14T02:15:19.551Z,14.50
2018-12-14T02:17:48.485Z,13.53
2018-12-14T02:20:17.403Z,15.27
2018-12-14T02:22:46.405Z,16.27
2018-12-14T02:25:15.347Z,14.37
2018-12-14T02:27:44.217Z,15.60
2018-12-14T02:30:24.454Z,15.53
2018-12-14T02:32:53.329Z,16.10
2018-12-14T02:35:23.148Z,15.97
2018-12-14T02:37:52.352Z,15.90
2018-12-14T02:40:21.296Z,15.20
2018-12-14T02:42:50.335Z,14.37
2018-12-14T02:45:19.231Z,15.37
2018-12-14T02:47:48.337Z,15.23
2018-12-14T02:50:17.326Z,15.43
2018-12-14T02:52:46.314Z,17.00
2018-12-14T02:55:15.220Z,16.20
2018-12-14T02:57:44.131Z,15.70
2018-12-14T03:00:13.405Z,16.03
2018-12-14T03:02:44.248Z,16.67
2018-12-14T03:05:13.342Z,16.07
2018-12-14T03:07:42.285Z,15.80
2018-12-14T03:10:11.193Z,15.40
2018-12-14T03:12:40.124Z,15.47
2018-12-14T03:15:09.273Z,15.87
2018-12-14T03:17:38.297Z,16.33
2018-12-14T03:20:08.303Z,16.63
2018-12-14T03:22:37.381Z,15.23
2018-12-14T03:25:06.513Z,16.47
2018-12-14T03:27:35.688Z,16.73
2018-12-14T03:30:06.509Z,16.47
2018-12-14T03:32:35.421Z,15.97
2018-12-14T03:35:04.927Z,15.73
2018-12-14T03:37:33.847Z,16.45
2018-12-14T03:40:02.896Z,15.70
2018-12-14T03:42:34.674Z,16.83
2018-12-14T03:45:02.957Z,16.47
2018-12-14T03:47:31.867Z,16.27
2018-12-14T03:50:00.736Z,15.97
2018-12-14T03:52:29.907Z,15.73
2018-12-14T03:54:58.814Z,16.43
2018-12-14T03:57:28.844Z,15.87
2018-12-14T03:59:57.817Z,15.23
2018-12-14T04:02:26.805Z,14.97
2018-12-14T04:04:55.745Z,18.23
2018-12-14T04:07:24.614Z,16.27
2018-12-14T04:09:54.613Z,15.77
2018-12-14T04:12:23.539Z,16.20
2018-12-14T04:14:52.544Z,16.13
2018-12-14T04:17:21.464Z,17.10
2018-12-14T04:19:50.396Z,16.70
2018-12-14T04:22:19.280Z,16.33
2018-12-14T04:24:48.156Z,16.63
2018-12-14T04:27:17.053Z,15.33
2018-12-14T04:29:45.955Z,17.00
2018-12-14T04:32:14.828Z,18.23
2018-12-14T04:34:43.712Z,17.03
2018-12-14T04:37:12.656Z,17.30
2018-12-14T04:39:41.665Z,16.60
2018-12-14T04:42:10.663Z,16.80
2018-12-14T04:44:39.613Z,17.37
2018-12-14T04:47:08.917Z,16.00
2018-12-14T04:49:38.063Z,16.03
2018-12-14T04:52:10.884Z,17.13
2018-12-14T04:54:39.985Z,17.27
2018-12-14T04:57:09.190Z,16.60
2018-12-14T04:59:38.181Z,17.32
2018-12-14T05:02:07.245Z,16.40
2018-12-14T05:04:36.232Z,15.90
2018-12-14T05:07:05.164Z,16.13
2018-12-14T05:09:36.175Z,16.80
2018-12-14T05:12:05.099Z,16.03
2018-12-14T05:14:34.356Z,16.00
2018-12-14T05:17:03.240Z,16.93
2018-12-14T05:19:32.375Z,16.48
2018-12-14T05:22:01.542Z,15.13
2018-12-14T05:24:30.565Z,16.33
2018-12-14T05:26:59.845Z,16.23
2018-12-14T05:29:28.753Z,16.17
2018-12-14T05:31:57.643Z,15.67
2018-12-14T05:34:26.562Z,15.37
2018-12-14T05:36:55.559Z,17.00
2018-12-14T05:39:24.458Z,16.13
2018-12-14T05:41:54.377Z,16.47
2018-12-14T05:44:23.350Z,17.40
2018-12-14T05:46:52.363Z,16.50
2018-12-14T05:49:21.268Z,16.93
2018-12-14T05:51:50.176Z,16.27
2018-12-14T05:54:19.140Z,16.40
2018-12-14T05:56:48.193Z,15.40
2018-12-14T06:02:20.621Z,16.90
2018-12-14T06:04:49.531Z,16.10
2018-12-14T06:07:18.437Z,18.90
2018-12-14T06:09:47.316Z,15.87
2018-12-14T06:12:16.221Z,16.37
2018-12-14T06:14:45.095Z,17.40
2018-12-14T06:17:14.024Z,16.33
2018-12-14T06:19:42.908Z,17.70
2018-12-14T06:22:11.877Z,17.27
2018-12-14T06:24:40.768Z,17.13
2018-12-14T06:27:09.672Z,16.63
2018-12-14T06:29:38.612Z,16.40
2018-12-14T19:12:26.135Z,23.20
2018-12-14T19:14:55.423Z,19.30
2018-12-14T19:17:24.858Z,18.23
2018-12-14T19:19:55.522Z,18.13
2018-12-14T19:22:25.228Z,17.83
2018-12-14T19:24:54.330Z,17.63
2018-12-14T19:27:24.305Z,17.33
2018-12-14T19:29:53.366Z,17.97
2018-12-14T19:32:22.417Z,17.30
2018-12-14T19:34:51.378Z,17.87
2018-12-14T19:37:20.394Z,17.90
2018-12-14T19:39:53.595Z,18.57
2018-12-14T19:42:22.796Z,18.43
2018-12-14T19:44:52.393Z,18.03
2018-12-14T19:47:22.139Z,18.13
2018-12-14T19:49:51.177Z,17.20
2018-12-14T19:52:26.017Z,18.40
2018-12-14T19:54:55.124Z,17.87
2018-12-14T19:57:24.135Z,18.37
2018-12-14T19:59:53.091Z,16.87
2018-12-14T20:02:22.174Z,18.20
2018-12-14T20:04:51.192Z,17.57
2018-12-14T20:07:20.076Z,18.10
2018-12-14T20:09:48.985Z,17.05
2018-12-14T20:12:19.580Z,16.43
2018-12-14T20:14:48.538Z,18.37
2018-12-14T20:17:17.469Z,18.53
2018-12-14T20:19:46.496Z,17.70
2018-12-14T20:22:17.715Z,17.23
2018-12-14T20:24:47.048Z,16.90
2018-12-14T20:27:16.247Z,17.77
2018-12-14T20:29:45.156Z,17.40
2018-12-14T20:32:14.396Z,17.10
2018-12-14T20:34:43.475Z,18.50
2018-12-14T20:37:12.603Z,17.10
2018-12-14T20:39:42.017Z,17.37
2018-12-14T20:42:11.037Z,18.33
2018-12-14T20:44:40.195Z,18.57
2018-12-14T20:47:09.905Z,18.90
2018-12-14T20:49:38.947Z,19.43
2018-12-14T20:52:08.037Z,17.77
2018-12-14T20:54:38.351Z,19.03
2018-12-14T20:57:07.294Z,18.07
2018-12-14T20:59:36.327Z,18.43
2018-12-14T21:02:06.688Z,19.17
2018-12-14T21:04:35.696Z,18.80
2018-12-14T21:07:04.735Z,18.17
2018-12-14T21:09:34.252Z,19.43
2018-12-14T21:12:03.180Z,19.40
2018-12-14T21:14:32.470Z,17.53
2018-12-14T21:17:01.502Z,18.73
2018-12-14T21:19:30.417Z,18.33
2018-12-14T21:21:59.695Z,18.43
2018-12-14T21:24:28.705Z,17.90
2018-12-14T21:26:57.662Z,19.03
2018-12-14T21:29:26.969Z,17.53
2018-12-14T21:31:55.927Z,19.42
2018-12-14T21:34:24.811Z,19.17
2018-12-14T21:36:53.836Z,18.60
2018-12-14T21:39:22.760Z,20.23
2018-12-14T21:41:51.750Z,19.40
2018-12-14T21:44:20.712Z,18.67
2018-12-14T21:46:49.783Z,18.73
2018-12-14T21:49:18.717Z,19.00
2018-12-14T21:51:47.865Z,18.45
2018-12-14T21:54:16.835Z,18.03
2018-12-14T21:56:45.935Z,18.17
2018-12-14T21:59:14.862Z,18.33
2018-12-14T22:01:43.880Z,18.92
2018-12-14T22:04:12.878Z,19.33
2018-12-14T22:06:41.767Z,18.50
2018-12-14T22:09:10.964Z,18.47
2018-12-14T22:11:40.016Z,21.10
2018-12-14T22:14:09.729Z,18.27
2018-12-14T22:16:39.334Z,19.20
2018-12-14T22:19:08.554Z,18.57
2018-12-14T22:21:37.542Z,20.97
2018-12-14T22:24:06.464Z,19.30
2018-12-14T22:26:35.657Z,18.23
2018-12-14T22:29:04.647Z,19.80
2018-12-14T22:31:33.998Z,18.73
2018-12-14T22:34:02.973Z,20.63
2018-12-14T22:36:31.898Z,20.00
2018-12-14T22:39:00.944Z,19.93
2018-12-14T22:41:29.930Z,19.37
2018-12-14T22:43:58.924Z,24.85
2018-12-14T22:46:27.975Z,24.80
2018-12-14T22:48:57.016Z,26.10
2018-12-14T22:51:25.926Z,25.67
2018-12-14T22:53:54.872Z,26.20
2018-12-14T22:56:23.817Z,26.17
2018-12-14T22:58:52.859Z,25.30
2018-12-14T23:01:21.863Z,25.60
2018-12-14T23:03:50.776Z,26.20
2018-12-14T23:06:19.901Z,26.07
2018-12-14T23:08:48.965Z,26.90
2018-12-14T23:11:18.958Z,26.70
2018-12-14T23:13:47.848Z,27.00
2018-12-14T23:16:16.907Z,26.48
2018-12-14T23:18:45.946Z,26.10
2018-12-14T23:21:14.964Z,26.75
2018-12-14T23:23:44.029Z,26.70
2018-12-14T23:26:13.002Z,25.93
2018-12-14T23:28:42.016Z,26.30
2018-12-14T23:31:11.291Z,26.68
2018-12-14T23:33:40.256Z,25.57
2018-12-14T23:36:09.232Z,25.97
2018-12-14T23:38:38.193Z,25.72
2018-12-14T23:41:07.116Z,26.83
2018-12-14T23:43:37.052Z,26.10
2018-12-14T23:46:06.250Z,26.68
2018-12-14T23:48:35.203Z,26.48
2018-12-14T23:51:04.148Z,26.27
2018-12-14T23:53:33.208Z,26.83
2018-12-14T23:56:02.126Z,26.57
2018-12-14T23:58:36.621Z,26.87
